Flight Track Log - Related Links

Times and Time Zones

All times are in EDT time to prevent confusion due to time zone crossing. See the SWA1688 flight status page for this flight to view local times or setup timezone preferences in your user account.

Time Position Orientation Groundspeed Altitude Reporting Facility
EDT Latitude Longitude Course Direction KTS MPH feet Rate Location/Type
Fri 09:49:30 PM 28.4333 -81.3000 24° Northeast 164 189 500  Level Orlando TRACON
Fri 09:50:12 PM 28.4667 -81.2833 24° Northeast 192 221 1,900 2,667 Climbing Orlando TRACON
Fri 09:51:00 PM 28.5167 -81.2667 16° North 222 255 4,500 3,056 Climbing Orlando TRACON
Fri 09:52:00 PM 28.5833 -81.2667 360° North 273 314 7,400 3,029 Climbing Orlando TRACON
Fri 09:52:45 PM 28.6428 -81.2769 351° North 274 315 9,800 2,629 Climbing Jacksonville Center
Fri 09:53:45 PM 28.7203 -81.2969 347° North 299 344 12,000 2,550 Climbing Jacksonville Center
Fri 09:54:45 PM 28.8164 -81.3239 346° North 319 367 14,900 2,800 Climbing Jacksonville Center
Fri 09:55:45 PM 28.9189 -81.3436 350° North 352 405 17,600 2,700 Climbing Jacksonville Center
Fri 09:56:45 PM 29.0258 -81.3728 347° North 374 430 20,300 2,500 Climbing Jacksonville Center
Fri 09:57:45 PM 29.1347 -81.3950 350° North 385 443 22,600 2,300 Climbing Jacksonville Center
Fri 09:58:45 PM 29.2494 -81.4050 356° North 397 457 24,900 2,200 Climbing Jacksonville Center
Fri 09:59:45 PM 29.3667 -81.4153 356° North 409 471 27,000 2,050 Climbing Jacksonville Center
Fri 10:00:45 PM 29.4794 -81.4278 354° North 409 471 29,000 1,650 Climbing Jacksonville Center
Fri 10:01:45 PM 29.5986 -81.4403 355° North 409 471 30,300 1,350 Climbing Jacksonville Center
Fri 10:02:45 PM 29.7219 -81.4506 356° North 423 487 31,700 1,350 Climbing Jacksonville Center
Fri 10:03:45 PM 29.8431 -81.4631 355° North 430 495 33,000 650 Climbing Jacksonville Center
Fri 10:04:45 PM 29.9600 -81.4733 356° North 425 489 33,000  Level Jacksonville Center
Fri 10:05:45 PM 30.0772 -81.4836 356° North 425 489 33,000  Level Jacksonville Center
Fri 10:06:45 PM 30.1942 -81.4986 354° North 425 489 33,000 200 Level Jacksonville Center
Fri 10:07:45 PM 30.3008 -81.5067 356° North 425 489 33,400 1,000 Climbing Jacksonville Center
Fri 10:08:45 PM 30.4217 -81.5025 North 425 489 35,000 800 Climbing Jacksonville Center
Fri 10:09:45 PM 30.5364 -81.4936 North 419 482 35,000  Level Jacksonville Center
Fri 10:10:45 PM 30.6556 -81.4872 North 419 482 35,000  Level Jacksonville Center
Fri 10:11:45 PM 30.7722 -81.4758 North 419 482 35,000  Level Jacksonville Center
Fri 10:12:45 PM 30.8869 -81.4667 North 419 482 35,000  Level Jacksonville Center
Fri 10:13:45 PM 30.9997 -81.4578 North 419 482 35,000  Level Jacksonville Center
Fri 10:14:45 PM 31.1142 -81.4414 North 419 482 35,000  Level Jacksonville Center
Fri 10:15:45 PM 31.2264 -81.3864 23° Northeast 419 482 35,000  Level Jacksonville Center
Fri 10:16:45 PM 31.3467 -81.3139 27° Northeast 425 489 35,000  Level Jacksonville Center
Fri 10:17:45 PM 31.4544 -81.2536 26° Northeast 439 505 35,000  Level Jacksonville Center
Fri 10:18:45 PM 31.5561 -81.2006 24° Northeast 439 505 35,000  Level Jacksonville Center
Fri 10:19:45 PM 31.6761 -81.1325 26° Northeast 434 499 35,000  Level Jacksonville Center
Fri 10:20:45 PM 31.7778 -81.0767 25° Northeast 440 506 35,000  Level Jacksonville Center
Fri 10:21:45 PM 31.8978 -81.0083 26° Northeast 440 506 35,000  Level Jacksonville Center
Fri 10:22:45 PM 32.0075 -80.9447 26° Northeast 441 507 35,000  Level Jacksonville Center
Fri 10:23:45 PM 32.1089 -80.8936 23° Northeast 441 507 35,000  Level Jacksonville Center
Fri 10:24:45 PM 32.2311 -80.8247 25° Northeast 435 501 35,000  Level Jacksonville Center
Fri 10:25:45 PM 32.3303 -80.7683 26° Northeast 435 501 35,000  Level Jacksonville Center
Fri 10:26:45 PM 32.4522 -80.6967 26° Northeast 440 506 35,000  Level Jacksonville Center
Fri 10:27:45 PM 32.5639 -80.6322 26° Northeast 440 506 35,000  Level Jacksonville Center
Fri 10:28:45 PM 32.6756 -80.5678 26° Northeast 440 506 35,000  Level Jacksonville Center
Fri 10:29:45 PM 32.7869 -80.5056 25° Northeast 440 506 35,000  Level Jacksonville Center
Fri 10:30:45 PM 32.8964 -80.4408 26° Northeast 440 506 35,000  Level Jacksonville Center
Fri 10:31:45 PM 32.9997 -80.3836 25° Northeast 440 506 35,000  Level Jacksonville Center
Fri 10:32:45 PM 33.1111 -80.3183 26° Northeast 440 506 35,000  Level Jacksonville Center
Fri 10:33:45 PM 33.2369 -80.2503 24° Northeast 440 506 35,000  Level Jacksonville Center
Fri 10:34:45 PM 33.3442 -80.1850 27° Northeast 440 506 35,000  Level Jacksonville Center
Fri 10:35:45 PM 33.4389 -80.1272 27° Northeast 435 501 35,000  Level Jacksonville Center
Fri 10:36:45 PM 33.5481 -80.0639 26° Northeast 435 501 35,000  Level Jacksonville Center
Fri 10:37:45 PM 33.6592 -79.9981 26° Northeast 435 501 35,000  Level Jacksonville Center
Fri 10:38:45 PM 33.7683 -79.9344 26° Northeast 435 501 35,000  Level Jacksonville Center
Fri 10:39:45 PM 33.8794 -79.8708 25° Northeast 435 501 35,000  Level Jacksonville Center
Fri 10:40:45 PM 33.9883 -79.8019 28° Northeast 440 506 35,000  Level Jacksonville Center
Fri 10:42:50 PM 34.2236 -79.6631 26° Northeast 419 482 35,000  Level Washington Center
Fri 10:43:52 PM 34.3383 -79.6033 23° Northeast 432 497 35,000  Level Washington Center
Fri 10:44:52 PM 34.4339 -79.5528 24° Northeast 427 491 35,000  Level Washington Center
Fri 10:45:50 PM 34.5419 -79.4975 23° Northeast 422 486 35,000  Level Washington Center
Fri 10:46:50 PM 34.6483 -79.4369 25° Northeast 422 486 35,000  Level Washington Center
Fri 10:47:50 PM 34.7564 -79.3814 23° Northeast 417 480 35,000  Level Washington Center
Fri 10:48:51 PM 34.8647 -79.3256 23° Northeast 417 480 35,000  Level Washington Center
Fri 10:49:52 PM 34.9728 -79.2697 23° Northeast 417 480 35,000  Level Washington Center
Fri 10:50:52 PM 35.0753 -79.1983 30° Northeast 417 480 35,000  Level Washington Center
Fri 10:51:50 PM 35.1778 -79.1139 34° Northeast 428 493 35,000  Level Washington Center
Fri 10:52:50 PM 35.2761 -79.0317 34° Northeast 433 498 35,000  Level Washington Center
Fri 10:53:50 PM 35.3789 -78.9469 34° Northeast 433 498 35,000  Level Washington Center
Fri 10:54:50 PM 35.4811 -78.8647 33° Northeast 433 498 35,000  Level Washington Center
Fri 10:55:51 PM 35.5858 -78.7794 34° Northeast 433 498 35,000  Level Washington Center
Fri 10:56:50 PM 35.6883 -78.6917 35° Northeast 438 504 35,000  Level Washington Center
Fri 10:57:51 PM 35.7928 -78.6033 34° Northeast 443 510 35,000  Level Washington Center
Fri 10:58:51 PM 35.8972 -78.5150 34° Northeast 443 510 35,000  Level Washington Center
Fri 10:59:50 PM 35.9972 -78.4289 35° Northeast 448 516 35,000  Level Washington Center
Fri 11:00:52 PM 36.1036 -78.3403 34° Northeast 448 516 35,000  Level Washington Center
Fri 11:01:51 PM 36.2100 -78.2511 34° Northeast 448 516 35,000  Level Washington Center
Fri 11:02:51 PM 36.3164 -78.1594 35° Northeast 453 521 35,000  Level Washington Center
Fri 11:03:52 PM 36.4311 -78.0650 34° Northeast 453 521 35,000  Level Washington Center
Fri 11:04:50 PM 36.5267 -77.9778 36° Northeast 459 528 35,000  Level Washington Center
Fri 11:05:50 PM 36.6306 -77.8878 35° Northeast 459 528 35,000 100 Level Washington Center
Fri 11:06:50 PM 36.7386 -77.7975 34° Northeast 459 528 35,200 793 Climbing Washington Center
Fri 11:07:51 PM 36.8428 -77.7044 36° Northeast 459 528 36,600 885 Climbing Washington Center
Fri 11:08:52 PM 36.9486 -77.6139 34° Northeast 459 528 37,000 200 Climbing Washington Center
Fri 11:09:51 PM 37.0564 -77.5203 35° Northeast 459 528 37,000  Level Washington Center
Fri 11:10:52 PM 37.1600 -77.4292 35° Northeast 459 528 37,000  Level Washington Center
Fri 11:11:51 PM 37.2678 -77.3353 35° Northeast 459 528 37,000  Level Washington Center
Fri 11:12:49 PM 37.3736 -77.2436 35° Northeast 459 528 37,000  Level Washington Center
Fri 11:13:50 PM 37.4792 -77.1464 36° Northeast 464 534 37,000  Level Washington Center
Fri 11:14:50 PM 37.5867 -77.0542 34° Northeast 469 540 37,000 344 Level Washington Center
Fri 11:15:52 PM 37.6942 -76.9592 35° Northeast 463 533 37,700 639 Climbing Washington Center
Fri 11:16:52 PM 37.7994 -76.8611 36° Northeast 463 533 38,300 655 Climbing Washington Center
Fri 11:17:51 PM 37.9089 -76.7683 34° Northeast 463 533 39,000 353 Climbing Washington Center
Fri 11:18:51 PM 38.0183 -76.6672 36° Northeast 469 540 39,000  Level Washington Center
Fri 11:19:50 PM 38.1256 -76.5683 36° Northeast 475 547 39,000  Level Washington Center
Fri 11:20:51 PM 38.2347 -76.4719 35° Northeast 475 547 39,000  Level Washington Center
Fri 11:21:52 PM 38.3542 -76.3647 35° Northeast 475 547 39,000  Level Washington Center
Fri 11:22:50 PM 38.4633 -76.2653 35° Northeast 475 547 39,000  Level Washington Center
Fri 11:23:51 PM 38.5722 -76.1653 36° Northeast 475 547 39,000  Level Washington Center
Fri 11:24:51 PM 38.6767 -76.0731 35° Northeast 491 565 39,000  Level Washington Center
Fri 11:25:49 PM 38.7833 -75.9725 36° Northeast 491 565 39,000  Level Washington Center
Fri 11:26:52 PM 38.8942 -75.8717 35° Northeast 486 559 39,000  Level Washington Center
Fri 11:27:50 PM 39.0028 -75.7706 36° Northeast 481 554 39,000  Level Washington Center
Fri 11:28:52 PM 39.1114 -75.6664 37° Northeast 481 554 39,000  Level Washington Center
Fri 11:29:52 PM 39.2197 -75.5703 34° Northeast 475 547 39,000  Level Washington Center
Fri 11:30:50 PM 39.3258 -75.4681 37° Northeast 475 547 39,000  Level Washington Center
Fri 11:31:52 PM 39.4300 -75.3658 37° Northeast 475 547 39,000  Level Washington Center
Fri 11:32:50 PM 39.5317 -75.2553 40° Northeast 475 547 39,000  Level Washington Center
Fri 11:34:52 PM 39.7433 -75.0150 41° Northeast 488 562 39,000  Level New York Center
Fri 11:35:52 PM 39.8453 -74.9050 40° Northeast 482 555 39,000  Level New York Center
Fri 11:36:53 PM 39.9511 -74.7919 39° Northeast 474 545 39,000  Level New York Center
Fri 11:37:52 PM 40.0550 -74.6786 40° Northeast 479 551 39,000  Level New York Center
Fri 11:38:53 PM 40.1569 -74.5594 42° Northeast 479 551 39,000  Level New York Center
Fri 11:39:51 PM 40.2586 -74.4400 42° Northeast 479 551 39,000 -508 Level New York Center
Fri 11:40:51 PM 40.3644 -74.3258 39° Northeast 479 551 38,000 -992 Descending New York Center
Fri 11:41:52 PM 40.4892 -74.2667 20° North 471 542 37,000 -934 Descending New York Center
Fri 11:42:53 PM 40.6275 -74.2383 North 471 542 36,100 -900 Descending New York Center
Fri 11:43:52 PM 40.7678 -74.2069 10° North 484 557 35,200 -1,358 Descending New York Center
Fri 11:46:03 PM 41.0767 -74.1472 North 527 606 31,800 -2,136 Descending Boston Center
Fri 11:47:03 PM 41.2250 -74.1125 10° North 534 615 28,400 -2,900 Descending Boston Center
Fri 11:48:03 PM 41.3839 -74.0753 10° North 534 615 26,000 -1,200 Descending Boston Center
Fri 11:49:03 PM 41.5178 -74.0481 North 512 589 26,000 -1,400 Level Boston Center
Fri 11:50:03 PM 41.6433 -74.0208 North 497 572 23,200 -2,521 Descending Boston Center
Fri 11:51:02 PM 41.7750 -73.9933 North 490 564 21,000 -2,579 Descending Boston Center
Fri 11:51:57 PM 41.9003 -73.9686 North 461 531 18,300 -2,959 Descending Boston Center
Fri 11:52:15 PM 41.9378 -73.9639 North 454 522 17,400 -2,455 Descending Boston Center
Fri 11:53:03 PM 42.0217 -73.9408 12° North 448 516 15,600 -1,167 Descending Boston Center
Fri 11:54:03 PM 42.1239 -73.9181 North 438 504 15,300 -50 Descending Boston Center
Fri 11:55:03 PM 42.2389 -73.8928 North 365 420 15,500 -1,150 Climbing Boston Center
Fri 11:56:03 PM 42.3142 -73.8692 13° North 310 357 13,000 -2,880 Descending Boston Center
Fri 11:56:18 PM 42.3394 -73.8642 North 290 334 11,900 -3,500 Descending Boston Center
Fri 11:57:03 PM 42.4000 -73.8431 14° North 291 335 9,500 -3,000 Descending Boston Center
Fri 11:57:18 PM 42.4189 -73.8406 North 289 333 8,900 -2,921 Descending Boston Center
Fri 11:58:19 PM 42.4900 -73.8197 12° North 235 270 5,800 -2,629 Descending Boston Center
Fri 11:59:03 PM 42.5297 -73.8036 17° North 230 265 4,300 -2,200 Descending Boston Center
Fri 11:59:19 PM 42.5422 -73.8011 North 181 208 3,600 -1,300 Descending Boston Center
Sat 12:00:03 AM 42.5714 -73.7989 North 185 213 3,000 -590 Descending Boston Center
Sat 12:00:20 AM 42.5861 -73.7994 358° North 132 152 3,000  Level Boston Center
Sat 12:01:03 AM 42.6069 -73.8025 354° North 142 163 3,000 -295 Level Boston Center
Sat 12:01:21 AM 42.6194 -73.8000 North 112 129 2,700 -500 Descending Boston Center
Sat 12:02:03 AM 42.6464 -73.8033 355° North 126 145 2,500 -700 Descending Boston Center
Sat 12:02:21 AM 42.6528 -73.8036 358° North 116 133 2,000 17,500 Descending Boston Center
Sat 12:03:03 AM 42.6819 -73.8042 359° North 126 145 20,000 -590 Climbing Boston Center
Sat 12:03:22 AM 42.6839 -73.8042 360° North 121 139 1,400  Descending Boston Center
Sat 12:04:03 AM 42.7194 -73.8050 359° North 126 145 20,000 -700 Climbing Boston Center
Sat 12:04:22 AM 42.7194 -73.8078 270° West 118 136 700  Descending Boston Center
Sat 12:05:03 AM 42.7547 -73.8058 North 126 145 20,000 11,465 Climbing Boston Center
Sat 12:06:03 AM 42.7839 -73.8064 359° North 126 145 20,000  Level Boston Center
Sat 12:08:00 AM 42.7491 -73.8020 10° North  Level Estimated

Login

Don't have an account? Register now (free) for customized features, flight alerts, and more!